createdAt,value
2019-03-01T00:01:02.081Z,8.98
2019-03-01T00:03:31.609Z,9.01
2019-03-01T00:06:28.478Z,8.86
2019-03-01T00:09:57.373Z,8.85
2019-03-01T00:12:59.818Z,8.87
2019-03-01T00:16:30.859Z,8.76
2019-03-01T00:19:46.100Z,8.73
2019-03-01T00:22:46.755Z,8.73
2019-03-01T00:25:50.196Z,8.70
2019-03-01T00:28:54.797Z,8.81
2019-03-01T00:31:38.812Z,8.74
2019-03-01T00:34:49.028Z,8.87
2019-03-01T00:37:55.385Z,8.73
2019-03-01T00:40:44.048Z,8.71
2019-03-01T00:43:42.725Z,8.72
2019-03-01T00:46:12.027Z,8.66
2019-03-01T00:48:42.834Z,8.62
2019-03-01T00:51:12.036Z,8.63
2019-03-01T00:53:41.777Z,8.60
2019-03-01T00:56:11.526Z,8.51
2019-03-01T00:58:41.296Z,8.51
2019-03-01T01:01:11.256Z,8.49
2019-03-01T01:03:42.218Z,8.47
2019-03-01T01:06:12.794Z,8.52
2019-03-01T01:08:44.183Z,8.38
2019-03-01T01:11:14.410Z,8.50
2019-03-01T01:13:45.670Z,8.40
2019-03-01T01:16:15.432Z,8.32
2019-03-01T01:18:44.887Z,8.28
2019-03-01T01:21:16.441Z,8.18
2019-03-01T01:23:46.370Z,8.11
2019-03-01T01:26:17.582Z,8.12
2019-03-01T01:28:47.324Z,8.13
2019-03-01T01:31:17.381Z,8.10
2019-03-01T01:33:47.029Z,8.04
2019-03-01T01:36:18.524Z,8.08
2019-03-01T01:38:48.984Z,8.04
2019-03-01T01:41:19.382Z,8.05
2019-03-01T01:43:48.910Z,8.11
2019-03-01T01:46:21.898Z,8.05
2019-03-01T01:48:52.807Z,8.04
2019-03-01T01:51:24.668Z,8.11
2019-03-01T01:53:54.983Z,8.21
2019-03-01T01:56:29.994Z,8.26
2019-03-01T01:59:03.491Z,8.41
2019-03-01T02:01:34.009Z,8.44
2019-03-01T02:04:03.222Z,8.35
2019-03-01T02:06:32.668Z,8.33
2019-03-01T02:09:02.650Z,8.06
2019-03-01T02:11:32.711Z,8.30
2019-03-01T02:14:03.155Z,8.35
2019-03-01T02:16:32.381Z,8.29
2019-03-01T02:19:01.899Z,8.22
2019-03-01T02:21:31.436Z,8.27
2019-03-01T02:24:00.670Z,8.29
2019-03-01T02:26:31.961Z,8.25
2019-03-01T02:29:01.859Z,8.21
2019-03-01T02:31:31.364Z,8.06
2019-03-01T02:34:01.607Z,7.99
2019-03-01T02:36:31.100Z,7.97
2019-03-01T02:39:01.634Z,7.88
2019-03-01T02:41:32.150Z,7.99
2019-03-01T02:44:02.118Z,7.89
2019-03-01T02:46:31.931Z,7.93
2019-03-01T02:49:02.371Z,7.98
2019-03-01T02:51:32.122Z,7.97
2019-03-01T02:54:05.575Z,8.00
2019-03-01T02:56:35.925Z,7.98
2019-03-01T02:59:05.395Z,8.05
2019-03-01T03:01:35.067Z,8.08
2019-03-01T03:04:05.435Z,8.14
2019-03-01T03:06:41.834Z,8.23
2019-03-01T03:09:12.664Z,8.13
2019-03-01T03:11:46.598Z,8.09
2019-03-01T03:14:17.882Z,8.10
2019-03-01T03:16:47.364Z,8.21
2019-03-01T03:19:16.833Z,8.17
2019-03-01T03:21:49.445Z,8.24
2019-03-01T03:24:21.969Z,8.16
2019-03-01T03:26:53.855Z,8.15
2019-03-01T03:29:24.055Z,8.23
2019-03-01T03:31:53.235Z,8.29
2019-03-01T03:34:22.665Z,8.24
2019-03-01T03:36:52.744Z,8.21
2019-03-01T03:39:22.220Z,8.21
2019-03-01T03:41:54.325Z,8.23
2019-03-01T03:44:24.337Z,8.22
2019-03-01T03:46:58.409Z,8.22
2019-03-01T03:49:28.901Z,8.25
2019-03-01T03:52:00.243Z,8.28
2019-03-01T03:54:32.662Z,8.32
2019-03-01T03:57:02.713Z,8.26
2019-03-01T03:59:34.367Z,8.20
2019-03-01T04:02:03.893Z,8.34
2019-03-01T04:04:34.177Z,8.38
2019-03-01T04:07:03.753Z,8.43
2019-03-01T04:09:33.741Z,8.28
2019-03-01T04:12:03.200Z,8.34
2019-03-01T04:14:33.211Z,8.34
2019-03-01T04:17:03.170Z,8.29
2019-03-01T04:19:33.130Z,8.20
2019-03-01T04:22:02.326Z,8.17
2019-03-01T04:24:32.280Z,8.17
2019-03-01T04:27:01.486Z,8.18
2019-03-01T04:29:30.971Z,8.18
2019-03-01T04:32:00.886Z,8.19
2019-03-01T04:34:30.860Z,8.24
2019-03-01T04:37:01.306Z,8.30
2019-03-01T04:39:31.098Z,8.17
2019-03-01T04:42:02.375Z,8.22
2019-03-01T04:44:31.552Z,8.26
2019-03-01T04:47:01.828Z,8.18
2019-03-01T04:49:33.807Z,8.29
2019-03-01T04:52:31.964Z,8.13
2019-03-01T04:55:02.486Z,8.07
2019-03-01T04:57:34.070Z,8.15
2019-03-01T05:00:03.316Z,8.18
2019-03-01T05:02:32.800Z,8.15
2019-03-01T05:05:03.662Z,8.10
2019-03-01T05:07:33.654Z,8.05
2019-03-01T05:10:06.439Z,8.03
2019-03-01T05:12:35.616Z,8.06
2019-03-01T05:15:06.418Z,8.11
2019-03-01T05:17:35.681Z,8.00
2019-03-01T05:20:05.063Z,8.01
2019-03-01T05:22:34.789Z,8.03
2019-03-01T05:25:05.173Z,8.06
2019-03-01T05:27:37.151Z,7.98
2019-03-01T05:30:08.053Z,7.95
2019-03-01T05:32:41.285Z,7.98
2019-03-01T05:35:11.953Z,8.17
2019-03-01T05:37:41.421Z,8.15
2019-03-01T05:40:11.907Z,8.12
2019-03-01T05:42:44.420Z,8.18
2019-03-01T05:45:18.353Z,8.29
2019-03-01T05:47:47.853Z,8.39
2019-03-01T05:50:18.092Z,8.40
2019-03-01T05:52:48.027Z,8.45
2019-03-01T05:55:17.608Z,8.51
2019-03-01T05:58:22.608Z,8.58
2019-03-01T06:00:53.094Z,8.56
2019-03-01T06:04:06.073Z,8.45
2019-03-01T06:06:40.120Z,8.50
2019-03-01T06:09:32.011Z,8.37
2019-03-01T06:12:40.038Z,8.26
2019-03-01T06:15:44.852Z,8.27
2019-03-01T06:18:56.752Z,8.23
2019-03-01T06:22:21.618Z,8.27
2019-03-01T06:25:08.384Z,8.27
2019-03-01T06:28:10.376Z,8.27
2019-03-01T06:30:56.854Z,8.28
2019-03-01T06:33:51.358Z,8.31
2019-03-01T06:36:58.980Z,8.35
2019-03-01T06:40:01.578Z,8.28
2019-03-01T06:43:16.284Z,8.34
2019-03-01T06:46:25.905Z,8.36
2019-03-01T06:49:07.880Z,8.33
2019-03-01T06:51:38.627Z,8.22
2019-03-01T06:54:14.215Z,8.24
2019-03-01T06:56:44.163Z,8.30
2019-03-01T06:59:13.387Z,8.30
2019-03-01T07:01:43.766Z,8.28
2019-03-01T07:04:17.757Z,8.23
2019-03-01T07:06:47.199Z,8.28
2019-03-01T07:09:18.602Z,8.25
2019-03-01T07:11:48.998Z,8.25
2019-03-01T07:14:18.936Z,8.27
2019-03-01T07:16:49.211Z,8.23
2019-03-01T07:19:21.038Z,8.20
2019-03-01T07:21:58.087Z,8.29
2019-03-01T07:24:28.319Z,8.32
2019-03-01T07:26:57.477Z,8.27
2019-03-01T07:29:26.835Z,8.18
2019-03-01T07:31:56.001Z,8.18
2019-03-01T07:34:25.545Z,8.35
2019-03-01T07:36:56.291Z,8.42
2019-03-01T07:39:25.926Z,8.41
2019-03-01T07:41:55.978Z,8.29
2019-03-01T07:44:25.467Z,8.41
2019-03-01T07:46:54.638Z,8.24
2019-03-01T07:49:23.962Z,8.43
2019-03-01T07:51:53.719Z,8.45
2019-03-01T07:54:23.031Z,8.52
2019-03-01T07:56:52.250Z,8.56
2019-03-01T07:59:24.070Z,8.68
2019-03-01T08:01:55.911Z,8.75
2019-03-01T08:04:28.847Z,8.87
2019-03-01T08:06:57.354Z,8.89
2019-03-01T08:09:27.055Z,8.68
2019-03-01T08:11:56.242Z,8.77
2019-03-01T08:14:27.994Z,8.94
2019-03-01T08:16:57.129Z,8.79
2019-03-01T08:19:27.521Z,9.04
2019-03-01T08:21:58.938Z,8.83
2019-03-01T08:24:28.400Z,8.72
2019-03-01T08:26:57.610Z,8.90
2019-03-01T08:29:26.815Z,8.88
2019-03-01T08:31:56.732Z,8.66
2019-03-01T08:34:26.061Z,8.70
2019-03-01T08:36:57.233Z,8.79
2019-03-01T08:39:26.446Z,8.98
2019-03-01T08:42:00.180Z,8.94
2019-03-01T08:44:27.646Z,9.12
2019-03-01T08:46:58.852Z,9.29
2019-03-01T08:49:28.408Z,8.96
2019-03-01T08:51:58.568Z,9.21
2019-03-01T08:54:31.033Z,9.23
2019-03-01T08:57:04.615Z,9.14
2019-03-01T08:59:33.847Z,9.26
2019-03-01T09:02:03.044Z,9.45
2019-03-01T09:04:37.809Z,9.52
2019-03-01T09:07:03.924Z,9.42
2019-03-01T09:09:33.354Z,9.62
2019-03-01T09:12:03.484Z,9.54
2019-03-01T09:14:33.139Z,9.63
2019-03-01T09:17:02.368Z,9.72
2019-03-01T09:19:32.378Z,9.53
2019-03-01T09:22:01.556Z,9.39
2019-03-01T09:24:31.556Z,9.34
2019-03-01T09:27:00.733Z,9.50
2019-03-01T09:29:30.191Z,9.54
2019-03-01T09:31:59.385Z,9.42
2019-03-01T09:34:31.867Z,9.54
2019-03-01T09:36:59.947Z,9.63
2019-03-01T09:39:29.130Z,9.71
2019-03-01T09:42:04.282Z,9.73
2019-03-01T09:44:29.223Z,9.82
2019-03-01T09:47:01.365Z,9.71
2019-03-01T09:49:30.323Z,9.81
2019-03-01T09:52:00.539Z,9.80
2019-03-01T09:54:31.172Z,9.76
2019-03-01T09:57:00.355Z,9.90
2019-03-01T09:59:31.252Z,9.96
2019-03-01T10:02:02.226Z,9.88
2019-03-01T10:04:31.424Z,9.96
2019-03-01T10:07:00.606Z,10.19
2019-03-01T10:09:29.799Z,9.92
2019-03-01T10:11:58.988Z,10.20
2019-03-01T10:14:28.997Z,10.48
2019-03-01T10:16:58.157Z,10.68
2019-03-01T10:19:27.398Z,10.86
2019-03-01T10:21:57.357Z,10.69
2019-03-01T10:24:26.545Z,10.82
2019-03-01T10:26:55.719Z,10.84
2019-03-01T10:29:24.934Z,10.95
2019-03-01T10:31:54.436Z,11.11
2019-03-01T10:34:23.644Z,11.10
2019-03-01T10:36:53.056Z,11.13
2019-03-01T10:39:24.635Z,11.25
2019-03-01T10:41:53.819Z,11.28
2019-03-01T10:44:22.999Z,11.46
2019-03-01T10:46:53.569Z,11.52
2019-03-01T10:49:22.779Z,11.66
2019-03-01T10:51:52.812Z,11.39
2019-03-01T10:54:24.645Z,11.29
2019-03-01T10:56:54.059Z,11.23
2019-03-01T10:59:23.253Z,11.23
2019-03-01T11:01:52.436Z,11.05
2019-03-01T11:04:21.954Z,10.88
2019-03-01T11:06:51.245Z,10.61
2019-03-01T11:09:22.504Z,10.62
2019-03-01T11:11:52.793Z,10.76
2019-03-01T11:14:28.802Z,10.79
2019-03-01T11:16:58.553Z,10.70
2019-03-01T11:19:28.938Z,10.62
2019-03-01T11:22:00.358Z,10.44
2019-03-01T11:24:30.115Z,10.45
2019-03-01T11:26:59.582Z,10.54
2019-03-01T11:29:34.736Z,10.52
2019-03-01T11:32:04.198Z,10.32
2019-03-01T11:34:36.295Z,10.34
2019-03-01T11:37:07.357Z,10.37
2019-03-01T11:39:38.666Z,10.50
2019-03-01T11:42:08.598Z,10.47
2019-03-01T11:44:38.374Z,10.63
2019-03-01T11:47:08.211Z,10.50
2019-03-01T11:49:37.352Z,10.66
2019-03-01T11:52:06.919Z,10.92
2019-03-01T11:54:36.373Z,11.30
2019-03-01T11:57:06.812Z,11.84
2019-03-01T11:59:35.971Z,11.85
2019-03-01T12:02:09.197Z,12.00
2019-03-01T12:04:39.166Z,11.83
2019-03-01T12:07:09.870Z,11.66
2019-03-01T12:09:39.039Z,11.65
2019-03-01T12:12:08.283Z,11.67
2019-03-01T12:14:37.487Z,11.80
2019-03-01T12:17:06.679Z,11.82
2019-03-01T12:19:35.878Z,11.88
2019-03-01T12:22:05.796Z,11.87
2019-03-01T12:24:35.261Z,11.75
2019-03-01T12:27:05.357Z,11.73
2019-03-01T12:29:35.062Z,11.69
2019-03-01T12:32:06.386Z,11.57
2019-03-01T12:34:35.551Z,11.46
2019-03-01T12:37:05.133Z,11.51
2019-03-01T12:39:35.370Z,11.41
2019-03-01T12:42:06.941Z,11.44
2019-03-01T12:44:36.377Z,11.41
2019-03-01T12:47:07.925Z,11.34
2019-03-01T12:49:37.766Z,11.42
2019-03-01T12:52:07.244Z,11.40
2019-03-01T12:54:37.437Z,11.32
2019-03-01T12:57:08.096Z,11.17
2019-03-01T12:59:41.434Z,11.21
2019-03-01T13:02:13.462Z,11.10
2019-03-01T13:04:45.042Z,10.96
2019-03-01T13:07:14.482Z,10.98
2019-03-01T13:09:43.681Z,11.00
2019-03-01T13:12:13.647Z,11.11
2019-03-01T13:14:45.222Z,11.39
2019-03-01T13:17:14.923Z,11.72
2019-03-01T13:19:45.003Z,11.69
2019-03-01T13:22:15.215Z,11.54
2019-03-01T13:24:44.704Z,11.39
2019-03-01T13:27:17.484Z,11.25
2019-03-01T13:29:49.268Z,11.06
2019-03-01T13:32:22.854Z,11.07
2019-03-01T13:34:54.341Z,10.85
2019-03-01T13:37:28.003Z,10.79
2019-03-01T13:40:00.682Z,10.64
2019-03-01T13:42:31.064Z,10.49
2019-03-01T13:45:01.768Z,10.45
2019-03-01T13:47:34.154Z,10.42
2019-03-01T13:50:06.779Z,10.46
2019-03-01T13:52:35.033Z,10.36
2019-03-01T13:55:05.379Z,10.26
2019-03-01T13:57:37.254Z,10.25
2019-03-01T14:00:08.292Z,10.23
2019-03-01T14:02:58.886Z,10.17
2019-03-01T14:05:28.177Z,10.10
2019-03-01T14:08:08.709Z,9.95
2019-03-01T14:10:32.044Z,9.80
2019-03-01T14:13:01.884Z,9.70
2019-03-01T14:15:50.544Z,9.55
2019-03-01T14:18:20.772Z,9.46
2019-03-01T14:20:49.991Z,9.40
2019-03-01T14:23:21.354Z,9.33
2019-03-01T14:25:51.456Z,9.22
2019-03-01T14:28:21.242Z,9.25
2019-03-01T14:30:51.193Z,9.27
2019-03-01T14:33:21.132Z,9.24
2019-03-01T14:35:50.579Z,9.19
2019-03-01T14:38:26.775Z,9.15
2019-03-01T14:40:59.617Z,9.25
2019-03-01T14:43:28.856Z,9.18
2019-03-01T14:45:58.135Z,9.14
2019-03-01T14:48:28.262Z,9.18
2019-03-01T14:51:00.245Z,9.11
2019-03-01T14:53:35.936Z,9.11
2019-03-01T14:56:15.191Z,9.16
2019-03-01T14:59:02.219Z,9.05
2019-03-01T15:01:44.384Z,9.05
2019-03-01T15:04:14.399Z,9.08
2019-03-01T15:06:43.598Z,9.11
2019-03-01T15:09:16.930Z,9.21
2019-03-01T15:11:52.233Z,9.22
2019-03-01T15:14:26.169Z,9.27
2019-03-01T15:16:58.764Z,9.11
2019-03-01T15:19:29.361Z,9.20
2019-03-01T15:22:00.674Z,9.19
2019-03-01T15:24:33.173Z,9.20
2019-03-01T15:27:03.984Z,9.24
2019-03-01T15:29:34.698Z,9.08
2019-03-01T15:32:04.979Z,9.11
2019-03-01T15:34:40.839Z,9.06
2019-03-01T15:37:10.556Z,9.05
2019-03-01T15:39:40.015Z,9.10
2019-03-01T15:42:10.604Z,9.02
2019-03-01T15:44:41.677Z,9.01
2019-03-01T15:47:11.506Z,9.02
2019-03-01T15:49:40.932Z,9.00
2019-03-01T15:52:13.784Z,8.95
2019-03-01T15:54:42.488Z,8.95
2019-03-01T15:57:18.879Z,8.89
2019-03-01T15:59:48.933Z,8.89
2019-03-01T16:02:20.567Z,8.76
2019-03-01T16:04:50.024Z,8.67
2019-03-01T16:07:19.484Z,8.65
2019-03-01T16:09:50.349Z,8.66
2019-03-01T16:12:23.890Z,8.64
2019-03-01T16:14:53.458Z,8.57
2019-03-01T16:17:24.614Z,8.59
2019-03-01T16:19:56.892Z,8.61
2019-03-01T16:22:26.360Z,8.52
2019-03-01T16:24:56.142Z,8.55
2019-03-01T16:27:25.585Z,8.49
2019-03-01T16:29:54.757Z,8.42
2019-03-01T16:32:24.293Z,8.44
2019-03-01T16:34:53.703Z,8.47
2019-03-01T16:37:26.063Z,8.40
2019-03-01T16:39:56.227Z,8.41
2019-03-01T16:42:27.630Z,8.37
2019-03-01T16:44:57.397Z,8.41
2019-03-01T16:47:26.577Z,8.41
2019-03-01T16:49:58.896Z,8.38
2019-03-01T16:52:30.299Z,8.37
2019-03-01T16:55:00.314Z,8.37
2019-03-01T16:57:29.492Z,8.36
2019-03-01T16:59:58.945Z,8.36
2019-03-01T17:02:28.537Z,8.36
2019-03-01T17:04:59.761Z,8.27
2019-03-01T17:07:29.212Z,8.31
2019-03-01T17:09:58.383Z,8.31
2019-03-01T17:12:27.577Z,8.32
2019-03-01T17:14:56.757Z,8.32
2019-03-01T17:17:26.686Z,8.27
2019-03-01T17:20:02.298Z,8.22
2019-03-01T17:22:31.442Z,8.22
2019-03-01T17:25:02.036Z,8.26
2019-03-01T17:27:32.087Z,8.27
2019-03-01T17:30:02.073Z,8.26
2019-03-01T17:32:39.802Z,8.24
2019-03-01T17:35:13.217Z,8.27
2019-03-01T17:37:43.939Z,8.28
2019-03-01T17:40:15.638Z,8.33
2019-03-01T17:42:44.879Z,8.26
2019-03-01T17:45:17.379Z,8.29
2019-03-01T17:47:48.585Z,8.37
2019-03-01T17:50:21.015Z,8.31
2019-03-01T17:52:51.225Z,8.27
2019-03-01T17:55:21.234Z,8.21
2019-03-01T17:57:54.183Z,8.08
2019-03-01T18:00:31.337Z,8.17
2019-03-01T18:03:00.879Z,8.16
2019-03-01T18:05:30.616Z,8.17
2019-03-01T18:08:03.707Z,8.19
2019-03-01T18:10:32.110Z,8.18
2019-03-01T18:13:02.246Z,8.21
2019-03-01T18:15:32.811Z,8.20
2019-03-01T18:18:02.054Z,8.20
2019-03-01T18:20:34.010Z,8.21
2019-03-01T18:23:03.616Z,8.24
2019-03-01T18:25:32.913Z,8.24
2019-03-01T18:28:03.722Z,8.28
2019-03-01T18:30:33.614Z,8.26
2019-03-01T18:33:04.018Z,8.24
2019-03-01T18:35:33.676Z,8.30
2019-03-01T18:38:02.896Z,8.25
2019-03-01T18:40:32.137Z,8.28
2019-03-01T18:43:01.666Z,8.36
2019-03-01T18:45:31.120Z,8.27
2019-03-01T18:48:00.310Z,8.31
2019-03-01T18:50:32.312Z,8.33
2019-03-01T18:53:03.580Z,8.24
2019-03-01T18:55:32.832Z,8.25
2019-03-01T18:58:02.651Z,8.27
2019-03-01T19:00:36.952Z,8.24
2019-03-01T19:03:06.419Z,8.22
2019-03-01T19:05:36.638Z,8.18
2019-03-01T19:08:07.567Z,8.14
2019-03-01T19:10:36.781Z,8.08
2019-03-01T19:13:05.980Z,8.07
2019-03-01T19:15:35.267Z,8.07
2019-03-01T19:18:04.537Z,8.02
2019-03-01T19:20:33.887Z,8.04
2019-03-01T19:23:03.421Z,7.97
2019-03-01T19:25:32.599Z,7.96
2019-03-01T19:28:03.078Z,7.86
2019-03-01T19:30:32.601Z,7.81
2019-03-01T19:33:02.214Z,7.75
2019-03-01T19:35:32.299Z,7.77
2019-03-01T19:38:02.872Z,7.70
2019-03-01T19:40:33.294Z,7.66
2019-03-01T19:43:02.481Z,7.60
2019-03-01T19:45:31.691Z,7.60
2019-03-01T19:48:03.243Z,7.56
2019-03-01T19:50:32.052Z,7.54
2019-03-01T19:53:01.282Z,7.53
2019-03-01T19:55:30.620Z,7.58
2019-03-01T19:58:00.628Z,7.55
2019-03-01T20:00:29.890Z,7.46
2019-03-01T20:03:01.303Z,7.35
2019-03-01T20:05:31.992Z,7.27
2019-03-01T20:08:01.410Z,7.15
2019-03-01T20:10:31.558Z,7.14
2019-03-01T20:13:09.448Z,7.03
2019-03-01T20:15:39.356Z,6.98
2019-03-01T20:18:09.738Z,6.94
2019-03-01T20:20:40.917Z,6.90
2019-03-01T20:23:11.348Z,6.88
2019-03-01T20:25:40.604Z,6.87
2019-03-01T20:28:11.605Z,6.82
2019-03-01T20:30:41.027Z,6.78
2019-03-01T20:33:10.762Z,6.74
2019-03-01T20:35:41.878Z,6.74
2019-03-01T20:38:11.143Z,6.70
2019-03-01T20:40:40.336Z,6.69
2019-03-01T20:43:10.625Z,6.70
2019-03-01T20:45:39.825Z,6.75
2019-03-01T20:48:09.041Z,6.71
2019-03-01T20:50:38.453Z,6.70
2019-03-01T20:53:10.057Z,6.75
2019-03-01T20:55:38.755Z,6.69
2019-03-01T20:58:08.032Z,6.69
2019-03-01T21:00:37.593Z,6.64
2019-03-01T21:03:07.079Z,6.68
2019-03-01T21:05:37.304Z,6.68
2019-03-01T21:08:06.722Z,6.62
2019-03-01T21:10:36.222Z,6.58
2019-03-01T21:13:08.705Z,6.58
2019-03-01T21:15:38.682Z,6.50
2019-03-01T21:18:08.296Z,6.57
2019-03-01T21:20:37.494Z,6.54
2019-03-01T21:23:07.800Z,6.49
2019-03-01T21:25:39.711Z,6.48
2019-03-01T21:28:08.493Z,6.47
2019-03-01T21:30:37.690Z,6.50
2019-03-01T21:33:06.857Z,6.48
2019-03-01T21:35:37.171Z,6.48
2019-03-01T21:38:06.555Z,6.48
2019-03-01T21:40:37.020Z,6.50
2019-03-01T21:43:06.575Z,6.54
2019-03-01T21:45:35.947Z,6.51
2019-03-01T21:48:05.686Z,6.49
2019-03-01T21:50:34.962Z,6.51
2019-03-01T21:53:05.599Z,6.45
2019-03-01T21:55:35.703Z,6.44
2019-03-01T21:58:07.569Z,6.44
2019-03-01T22:00:39.651Z,6.37
2019-03-01T22:03:09.188Z,6.40
2019-03-01T22:05:41.194Z,6.41
2019-03-01T22:08:12.992Z,6.43
2019-03-01T22:10:44.943Z,6.35
2019-03-01T22:13:14.116Z,6.33
2019-03-01T22:15:45.166Z,6.30
2019-03-01T22:18:14.407Z,6.26
2019-03-01T22:20:44.811Z,6.20
2019-03-01T22:23:15.788Z,6.19
2019-03-01T22:25:45.690Z,6.16
2019-03-01T22:28:14.856Z,6.18
2019-03-01T22:30:45.340Z,6.11
2019-03-01T22:33:17.389Z,6.10
2019-03-01T22:35:45.786Z,6.11
2019-03-01T22:38:16.149Z,6.14
2019-03-01T22:40:48.298Z,6.21
2019-03-01T22:43:17.806Z,6.20
2019-03-01T22:45:48.849Z,6.19
2019-03-01T22:48:17.964Z,6.16
2019-03-01T22:50:48.230Z,6.19
2019-03-01T22:53:18.225Z,6.21
2019-03-01T22:55:47.784Z,6.14
2019-03-01T22:58:16.993Z,6.19
2019-03-01T23:01:23.073Z,6.24
2019-03-01T23:04:00.270Z,6.20
2019-03-01T23:06:29.965Z,6.23
2019-03-01T23:09:00.860Z,6.27
2019-03-01T23:11:32.409Z,6.31
2019-03-01T23:14:02.287Z,6.29
2019-03-01T23:16:31.450Z,6.28
2019-03-01T23:19:00.656Z,6.30
2019-03-01T23:21:32.690Z,6.38
2019-03-01T23:24:01.104Z,6.41
2019-03-01T23:26:31.368Z,6.47
2019-03-01T23:29:00.585Z,6.46
2019-03-01T23:31:29.775Z,6.46
2019-03-01T23:33:59.802Z,6.38
2019-03-01T23:36:29.740Z,6.35
2019-03-01T23:38:59.529Z,6.31
2019-03-01T23:41:30.075Z,6.24
2019-03-01T23:44:02.916Z,6.23
2019-03-01T23:46:30.979Z,6.21
2019-03-01T23:49:06.279Z,6.20
2019-03-01T23:51:31.051Z,6.20
2019-03-01T23:54:00.240Z,6.21
2019-03-01T23:56:30.567Z,6.14
2019-03-01T23:59:00.114Z,6.07
